createdAt,value
2018-07-26T00:00:03.688Z,20.687
2018-07-26T00:01:03.359Z,20.75
2018-07-26T00:02:03.779Z,20.75
2018-07-26T00:03:03.615Z,20.687
2018-07-26T00:04:04.130Z,20.687
2018-07-26T00:05:05.882Z,20.687
2018-07-26T00:06:04.240Z,20.562
2018-07-26T00:07:03.860Z,20.562
2018-07-26T00:08:03.517Z,20.5
2018-07-26T00:09:05.914Z,20.5
2018-07-26T00:10:04.344Z,20.437
2018-07-26T00:11:04.069Z,20.375
2018-07-26T00:12:03.759Z,20.375
2018-07-26T00:13:04.135Z,20.312
2018-07-26T00:14:03.867Z,20.312
2018-07-26T00:15:03.538Z,20.375
2018-07-26T00:16:04.041Z,20.375
2018-07-26T00:17:03.608Z,20.375
2018-07-26T00:18:04.262Z,20.375
2018-07-26T00:19:03.523Z,20.312
2018-07-26T00:20:03.918Z,20.312
2018-07-26T00:21:03.605Z,20.312
2018-07-26T00:22:04.621Z,20.312
2018-07-26T00:23:04.168Z,20.312
2018-07-26T00:24:04.175Z,20.312
2018-07-26T00:25:03.707Z,20.25
2018-07-26T00:26:04.286Z,20.187
2018-07-26T00:27:03.967Z,20.187
2018-07-26T00:28:04.133Z,20.062
2018-07-26T00:29:04.926Z,20
2018-07-26T00:30:03.840Z,19.937
2018-07-26T00:31:03.419Z,19.875
2018-07-26T00:32:03.821Z,19.875
2018-07-26T00:33:03.391Z,19.937
2018-07-26T00:34:04.053Z,19.937
2018-07-26T00:35:03.932Z,19.875
2018-07-26T00:36:03.484Z,19.875
2018-07-26T00:37:04.239Z,19.812
2018-07-26T00:38:03.449Z,19.75
2018-07-26T00:39:04.694Z,19.75
2018-07-26T00:40:04.356Z,19.687
2018-07-26T00:41:04.193Z,19.687
2018-07-26T00:42:03.496Z,19.75
2018-07-26T00:43:04.181Z,19.75
2018-07-26T00:44:03.903Z,19.687
2018-07-26T00:45:03.665Z,19.687
2018-07-26T00:46:04.263Z,19.625
2018-07-26T00:47:04.045Z,19.562
2018-07-26T00:48:03.779Z,19.5
2018-07-26T00:49:04.341Z,19.5
2018-07-26T00:50:03.447Z,19.437
2018-07-26T00:51:03.949Z,19.375
2018-07-26T00:52:03.785Z,19.375
2018-07-26T00:53:03.475Z,19.375
2018-07-26T00:54:03.998Z,19.312
2018-07-26T00:55:03.581Z,19.312
2018-07-26T00:56:04.165Z,19.25
2018-07-26T00:57:04.268Z,19.187
2018-07-26T00:58:04.102Z,19.187
2018-07-26T00:59:03.788Z,19.125
2018-07-26T01:01:03.456Z,19
2018-07-26T01:02:03.881Z,19
2018-07-26T01:03:04.121Z,18.937
2018-07-26T01:04:03.739Z,18.937
2018-07-26T01:05:04.009Z,19
2018-07-26T01:06:03.660Z,19.062
2018-07-26T01:07:04.262Z,19.125
2018-07-26T01:08:03.846Z,19.187
2018-07-26T01:09:03.745Z,19.25
2018-07-26T01:10:04.008Z,19.25
2018-07-26T01:11:04.153Z,19.25
2018-07-26T01:12:03.747Z,19.187
2018-07-26T01:13:03.311Z,19.187
2018-07-26T01:14:03.879Z,19.187
2018-07-26T01:15:03.357Z,19.25
2018-07-26T01:16:04.024Z,19.187
2018-07-26T01:17:04.682Z,19.187
2018-07-26T01:18:04.080Z,19.187
2018-07-26T01:19:04.806Z,19.187
2018-07-26T01:20:04.355Z,19.187
2018-07-26T01:21:03.453Z,19.125
2018-07-26T01:22:04.102Z,19.125
2018-07-26T01:23:03.881Z,19.062
2018-07-26T01:24:03.529Z,19.062
2018-07-26T01:25:04.212Z,19.062
2018-07-26T01:26:03.693Z,19.062
2018-07-26T01:27:03.414Z,19.062
2018-07-26T01:28:04.136Z,19.062
2018-07-26T01:29:04.459Z,19.062
2018-07-26T01:30:03.914Z,19.062
2018-07-26T01:31:03.648Z,19
2018-07-26T01:32:04.009Z,19
2018-07-26T01:33:03.348Z,18.937
2018-07-26T01:34:03.911Z,18.937
2018-07-26T01:35:03.529Z,18.937
2018-07-26T01:36:04.039Z,18.937
2018-07-26T01:37:03.453Z,18.937
2018-07-26T01:38:04.069Z,18.937
2018-07-26T01:39:03.659Z,18.937
2018-07-26T01:40:04.143Z,18.937
2018-07-26T01:41:03.844Z,18.875
2018-07-26T01:42:03.592Z,18.875
2018-07-26T01:43:04.168Z,18.875
2018-07-26T01:44:03.373Z,18.875
2018-07-26T01:45:04.096Z,18.875
2018-07-26T01:46:05.260Z,18.937
2018-07-26T01:47:03.795Z,18.937
2018-07-26T01:48:03.436Z,18.875
2018-07-26T01:49:03.909Z,18.875
2018-07-26T01:50:03.816Z,18.812
2018-07-26T01:51:04.211Z,18.812
2018-07-26T01:52:03.881Z,18.75
2018-07-26T01:53:03.466Z,18.75
2018-07-26T01:54:04.136Z,18.75
2018-07-26T01:55:04.389Z,18.812
2018-07-26T01:56:04.017Z,18.812
2018-07-26T01:57:03.844Z,18.812
2018-07-26T01:58:03.543Z,18.75
2018-07-26T01:59:04.302Z,18.75
2018-07-26T02:00:03.605Z,18.812
2018-07-26T02:01:04.043Z,18.812
2018-07-26T02:02:03.528Z,18.812
2018-07-26T02:03:03.973Z,18.812
2018-07-26T02:04:05.287Z,18.875
2018-07-26T02:05:03.612Z,18.812
2018-07-26T02:06:04.185Z,18.812
2018-07-26T02:07:04.014Z,18.875
2018-07-26T02:08:03.382Z,18.812
2018-07-26T02:09:04.053Z,18.75
2018-07-26T02:10:03.619Z,18.75
2018-07-26T02:11:03.428Z,18.687
2018-07-26T02:12:04.027Z,18.687
2018-07-26T02:13:03.528Z,18.625
2018-07-26T02:14:04.292Z,18.625
2018-07-26T02:15:03.904Z,18.562
2018-07-26T02:16:03.572Z,18.5
2018-07-26T02:17:03.995Z,18.437
2018-07-26T02:18:04.278Z,18.437
2018-07-26T02:19:04.481Z,18.437
2018-07-26T02:20:03.661Z,18.437
2018-07-26T02:21:05.237Z,18.437
2018-07-26T02:22:03.585Z,18.375
2018-07-26T02:23:04.314Z,18.312
2018-07-26T02:24:04.002Z,18.312
2018-07-26T02:25:03.677Z,18.312
2018-07-26T02:26:03.920Z,18.312
2018-07-26T02:27:03.507Z,18.312
2018-07-26T02:28:04.136Z,18.25
2018-07-26T02:29:03.861Z,18.25
2018-07-26T02:30:04.134Z,18.187
2018-07-26T02:31:03.583Z,18.187
2018-07-26T02:32:04.388Z,18.125
2018-07-26T02:33:03.877Z,18.062
2018-07-26T02:34:03.514Z,18
2018-07-26T02:35:04.133Z,18
2018-07-26T02:36:04.540Z,18
2018-07-26T02:37:03.574Z,18
2018-07-26T02:38:03.958Z,18
2018-07-26T02:39:03.808Z,18.062
2018-07-26T02:40:04.290Z,18.062
2018-07-26T02:41:03.968Z,18.062
2018-07-26T02:42:03.540Z,18.062
2018-07-26T02:43:03.456Z,18.062
2018-07-26T02:44:04.770Z,18.062
2018-07-26T02:45:04.378Z,18.062
2018-07-26T02:46:03.688Z,18.062
2018-07-26T02:47:03.457Z,18.062
2018-07-26T02:48:04.041Z,18
2018-07-26T02:49:03.676Z,18
2018-07-26T02:50:03.349Z,18
2018-07-26T02:51:04.050Z,18
2018-07-26T02:52:03.548Z,18
2018-07-26T02:53:03.814Z,18
2018-07-26T02:54:03.442Z,17.937
2018-07-26T02:55:04.071Z,17.937
2018-07-26T02:56:03.519Z,17.937
2018-07-26T02:57:03.992Z,17.937
2018-07-26T02:58:03.515Z,17.937
2018-07-26T02:59:05.199Z,17.875
2018-07-26T03:00:03.794Z,17.875
2018-07-26T03:01:03.495Z,17.812
2018-07-26T03:02:03.850Z,17.812
2018-07-26T03:03:04.295Z,17.75
2018-07-26T03:04:03.991Z,17.75
2018-07-26T03:05:05.085Z,17.75
2018-07-26T03:06:03.569Z,17.625
2018-07-26T03:07:04.285Z,17.625
2018-07-26T03:08:03.813Z,17.625
2018-07-26T03:09:03.856Z,17.625
2018-07-26T03:10:03.345Z,17.562
2018-07-26T03:11:03.927Z,17.562
2018-07-26T03:12:03.650Z,17.562
2018-07-26T03:13:04.160Z,17.562
2018-07-26T03:14:05.405Z,17.625
2018-07-26T03:15:03.568Z,17.562
2018-07-26T03:16:04.037Z,17.562
2018-07-26T03:17:03.899Z,17.562
2018-07-26T03:18:03.575Z,17.562
2018-07-26T03:19:04.298Z,17.5
2018-07-26T03:20:03.818Z,17.437
2018-07-26T03:21:04.169Z,17.5
2018-07-26T03:22:03.695Z,17.5
2018-07-26T03:23:04.323Z,17.5
2018-07-26T03:24:04.302Z,17.5
2018-07-26T03:25:03.451Z,17.5
2018-07-26T03:26:04.285Z,17.5
2018-07-26T03:27:03.587Z,17.5
2018-07-26T03:28:03.540Z,17.5
2018-07-26T03:29:04.068Z,17.5
2018-07-26T03:30:03.621Z,17.5
2018-07-26T03:31:03.966Z,17.5
2018-07-26T03:32:04.564Z,17.687
2018-07-26T03:33:03.925Z,17.875
2018-07-26T03:34:03.516Z,18.187
2018-07-26T03:35:04.021Z,18.562
2018-07-26T03:36:03.640Z,18.812
2018-07-26T03:37:04.051Z,19.125
2018-07-26T03:38:03.467Z,19.437
2018-07-26T03:39:05.425Z,19.75
2018-07-26T03:40:04.076Z,20.062
2018-07-26T03:41:03.796Z,20.375
2018-07-26T03:42:04.260Z,20.687
2018-07-26T03:43:03.933Z,20.937
2018-07-26T03:44:05.249Z,21.25
2018-07-26T03:45:03.636Z,21.5
2018-07-26T03:46:05.287Z,21.812
2018-07-26T03:47:03.561Z,22.125
2018-07-26T03:48:04.019Z,22.375
2018-07-26T03:49:03.576Z,22.625
2018-07-26T03:50:03.969Z,22.812
2018-07-26T03:51:03.423Z,23.062
2018-07-26T03:52:04.133Z,23.312
2018-07-26T03:53:03.553Z,23.5
2018-07-26T03:54:04.347Z,23.812
2018-07-26T03:55:03.748Z,24.062
2018-07-26T03:56:03.944Z,24.312
2018-07-26T03:57:03.400Z,24.5
2018-07-26T03:58:04.025Z,24.687
2018-07-26T03:59:03.623Z,24.875
2018-07-26T04:00:05.602Z,25.062
2018-07-26T04:01:04.069Z,25.25
2018-07-26T04:02:03.647Z,25.312
2018-07-26T04:03:04.069Z,25.375
2018-07-26T04:04:03.547Z,25.437
2018-07-26T04:05:04.690Z,25.437
2018-07-26T04:06:04.004Z,25.375
2018-07-26T04:07:03.698Z,25.375
2018-07-26T04:08:03.998Z,25.437
2018-07-26T04:09:03.937Z,25.437
2018-07-26T04:10:04.023Z,25.5
2018-07-26T04:11:03.501Z,25.375
2018-07-26T04:12:04.192Z,25.5
2018-07-26T04:13:03.515Z,25.562
2018-07-26T04:14:03.737Z,25.625
2018-07-26T04:15:04.243Z,25.75
2018-07-26T04:16:03.592Z,25.937
2018-07-26T04:17:04.161Z,26.187
2018-07-26T04:18:03.943Z,26.375
2018-07-26T04:19:05.025Z,26.562
2018-07-26T04:20:04.253Z,26.562
2018-07-26T04:21:03.786Z,26.562
2018-07-26T04:22:03.528Z,26.562
2018-07-26T04:23:03.741Z,26.562
2018-07-26T04:24:04.301Z,26.687
2018-07-26T04:25:04.469Z,26.812
2018-07-26T04:26:03.966Z,26.812
2018-07-26T04:27:03.726Z,26.812
2018-07-26T04:28:05.308Z,27
2018-07-26T04:29:03.719Z,27.062
2018-07-26T04:30:04.152Z,27.25
2018-07-26T04:31:03.632Z,27.25
2018-07-26T04:32:03.546Z,27.375
2018-07-26T04:33:04.013Z,27.5
2018-07-26T04:34:03.257Z,27.312
2018-07-26T04:35:03.868Z,27.375
2018-07-26T04:36:03.407Z,27.5
2018-07-26T04:37:03.999Z,27.687
2018-07-26T04:38:03.737Z,27.562
2018-07-26T04:39:04.191Z,27.5
2018-07-26T04:40:03.777Z,27.687
2018-07-26T04:41:04.271Z,27.687
2018-07-26T04:42:03.568Z,27.687
2018-07-26T04:43:04.144Z,27.687
2018-07-26T04:44:03.781Z,27.75
2018-07-26T04:45:03.796Z,27.875
2018-07-26T04:46:03.812Z,28.125
2018-07-26T04:47:03.533Z,28.187
2018-07-26T04:48:04.226Z,28.375
2018-07-26T04:49:03.485Z,28.5
2018-07-26T04:50:03.967Z,28.5
2018-07-26T04:51:03.611Z,28.562
2018-07-26T04:52:04.116Z,28.5
2018-07-26T04:53:03.834Z,28.437
2018-07-26T04:54:04.630Z,28.312
2018-07-26T04:55:03.457Z,28.125
2018-07-26T04:56:04.035Z,28.062
2018-07-26T04:57:03.424Z,28.062
2018-07-26T04:58:03.414Z,28.062
2018-07-26T04:59:03.702Z,27.75
2018-07-26T05:00:03.744Z,27.687
2018-07-26T05:01:03.791Z,27.75
2018-07-26T05:02:03.438Z,27.875
2018-07-26T05:03:03.982Z,28
2018-07-26T05:04:03.527Z,27.937
2018-07-26T05:05:03.962Z,28
2018-07-26T05:06:03.483Z,27.937
2018-07-26T05:07:03.937Z,28.187
2018-07-26T05:08:03.444Z,28.375
2018-07-26T05:09:04.972Z,28.312
2018-07-26T05:10:03.497Z,28.25
2018-07-26T05:11:04.097Z,28.187
2018-07-26T05:12:03.674Z,28.125
2018-07-26T05:13:04.272Z,28.125
2018-07-26T05:14:03.767Z,27.937
2018-07-26T05:15:03.500Z,27.937
2018-07-26T05:16:04.730Z,27.875
2018-07-26T05:17:04.092Z,27.812
2018-07-26T05:18:03.531Z,27.812
2018-07-26T05:19:04.341Z,27.75
2018-07-26T05:20:03.503Z,28
2018-07-26T05:21:04.388Z,28
2018-07-26T05:22:03.306Z,27.937
2018-07-26T05:23:03.826Z,27.937
2018-07-26T05:24:03.389Z,27.937
2018-07-26T05:25:04.341Z,28
2018-07-26T05:26:03.579Z,27.875
2018-07-26T05:27:04.057Z,27.937
2018-07-26T05:28:04.185Z,28
2018-07-26T05:29:04.004Z,28.312
2018-07-26T05:30:03.658Z,28.375
2018-07-26T05:31:03.887Z,28.562
2018-07-26T05:32:03.890Z,28.812
2018-07-26T05:33:04.034Z,28.937
2018-07-26T05:34:05.986Z,29.125
2018-07-26T05:35:03.393Z,29.25
2018-07-26T05:36:03.984Z,29.375
2018-07-26T05:37:04.206Z,29.312
2018-07-26T05:38:03.567Z,29.125
2018-07-26T05:39:04.310Z,29.187
2018-07-26T05:40:03.953Z,29.375
2018-07-26T05:41:03.575Z,29.5
2018-07-26T05:42:04.051Z,29.875
2018-07-26T05:43:03.601Z,30.25
2018-07-26T05:44:04.559Z,30.625
2018-07-26T05:45:04.072Z,30.812
2018-07-26T05:46:03.608Z,30.625
2018-07-26T05:47:04.296Z,30.75
2018-07-26T05:48:03.675Z,30.937
2018-07-26T05:49:04.415Z,31.187
2018-07-26T05:50:03.519Z,31.125
2018-07-26T05:51:04.373Z,31.125
2018-07-26T05:52:04.268Z,30.687
2018-07-26T05:53:03.839Z,30.437
2018-07-26T05:54:03.960Z,30.687
2018-07-26T05:55:04.238Z,31
2018-07-26T05:56:03.947Z,31.187
2018-07-26T05:57:03.472Z,31.312
2018-07-26T05:58:04.104Z,31.562
2018-07-26T05:59:03.600Z,31.625
2018-07-26T06:00:03.605Z,31.562
2018-07-26T06:01:04.115Z,31.625
2018-07-26T06:02:03.673Z,31.812
2018-07-26T06:03:03.834Z,31.875
2018-07-26T06:04:03.631Z,31.875
2018-07-26T06:05:04.270Z,31.75
2018-07-26T06:06:03.652Z,31.812
2018-07-26T06:07:04.254Z,31.937
2018-07-26T06:08:03.412Z,31.937
2018-07-26T06:09:04.314Z,31.875
2018-07-26T06:10:03.834Z,31.75
2018-07-26T06:11:03.562Z,31.75
2018-07-26T06:12:04.280Z,31.812
2018-07-26T06:13:03.861Z,32
2018-07-26T06:14:03.863Z,32.062
2018-07-26T06:15:03.452Z,32.125
2018-07-26T06:16:03.694Z,32.312
2018-07-26T06:17:03.778Z,32.437
2018-07-26T06:18:03.366Z,32.625
2018-07-26T06:19:03.936Z,32.75
2018-07-26T06:20:03.523Z,32.75
2018-07-26T06:21:04.923Z,33
2018-07-26T06:22:04.078Z,33.312
2018-07-26T06:23:03.815Z,33.687
2018-07-26T06:24:03.437Z,33.75
2018-07-26T06:25:05.147Z,33.875
2018-07-26T06:26:03.523Z,34
2018-07-26T06:27:03.739Z,34.125
2018-07-26T06:28:04.082Z,33.937
2018-07-26T06:29:04.660Z,33.5
2018-07-26T06:30:04.037Z,33.5
2018-07-26T06:31:03.723Z,33.437
2018-07-26T06:32:04.152Z,33.125
2018-07-26T06:33:03.622Z,33.375
2018-07-26T06:34:03.991Z,33.375
2018-07-26T06:35:03.654Z,33.562
2018-07-26T06:36:04.248Z,33.562
2018-07-26T06:37:03.577Z,33.437
2018-07-26T06:38:04.055Z,33.562
2018-07-26T06:39:03.860Z,33.437
2018-07-26T06:40:03.326Z,33.5
2018-07-26T06:41:03.855Z,33.437
2018-07-26T06:42:04.149Z,33.312
2018-07-26T06:43:03.354Z,32.937
2018-07-26T06:44:04.050Z,32.812
2018-07-26T06:45:03.712Z,32.75
2018-07-26T06:46:04.371Z,32.687
2018-07-26T06:47:03.831Z,32.562
2018-07-26T06:48:03.505Z,32.562
2018-07-26T06:49:04.223Z,32.5
2018-07-26T06:50:03.502Z,32.687
2018-07-26T06:51:04.269Z,32.562
2018-07-26T06:52:03.775Z,32.437
2018-07-26T06:53:04.076Z,32.437
2018-07-26T06:54:03.781Z,32.875
2018-07-26T06:55:03.434Z,32.937
2018-07-26T06:56:03.902Z,33.125
2018-07-26T06:57:03.615Z,33.187
2018-07-26T06:58:03.402Z,33.312
2018-07-26T06:59:04.091Z,33.375
2018-07-26T07:00:03.679Z,33.312
2018-07-26T07:01:04.278Z,33.25
2018-07-26T07:02:03.648Z,33.187
2018-07-26T07:03:04.082Z,32.687
2018-07-26T07:04:05.545Z,32.312
2018-07-26T07:05:03.447Z,32.312
2018-07-26T07:06:03.968Z,32.437
2018-07-26T07:07:03.505Z,32.437
2018-07-26T07:08:04.073Z,32.187
2018-07-26T07:09:04.269Z,32
2018-07-26T07:10:04.055Z,32.187
2018-07-26T07:11:03.700Z,32.375
2018-07-26T07:12:04.428Z,32.562
2018-07-26T07:13:03.665Z,32.187
2018-07-26T07:14:04.068Z,31.937
2018-07-26T07:15:03.794Z,31.812
2018-07-26T07:16:05.390Z,31.937
2018-07-26T07:17:04.121Z,32.312
2018-07-26T07:18:03.681Z,32.687
2018-07-26T07:19:04.351Z,33.125
2018-07-26T07:20:04.055Z,33.062
2018-07-26T07:21:03.873Z,32.75
2018-07-26T07:22:04.458Z,32.625
2018-07-26T07:23:04.045Z,32.812
2018-07-26T07:24:03.549Z,33.187
2018-07-26T07:25:03.465Z,33.687
2018-07-26T07:26:05.400Z,33.75
2018-07-26T07:27:03.893Z,33.187
2018-07-26T07:28:03.657Z,33
2018-07-26T07:29:04.306Z,33.062
2018-07-26T07:30:04.197Z,32.687
2018-07-26T07:31:03.758Z,32.5
2018-07-26T07:32:03.536Z,32.687
2018-07-26T07:33:04.078Z,32.812
2018-07-26T07:34:04.145Z,32.812
2018-07-26T07:35:03.791Z,32.75
2018-07-26T07:36:03.961Z,32.187
2018-07-26T07:37:03.565Z,32
2018-07-26T07:38:04.376Z,31.562
2018-07-26T07:39:07.010Z,31.875
2018-07-26T07:40:03.609Z,31.812
2018-07-26T07:41:03.588Z,31.937
2018-07-26T07:42:04.408Z,31.875
2018-07-26T07:43:04.044Z,31.687
2018-07-26T07:44:04.653Z,31.875
2018-07-26T07:45:03.996Z,32.187
2018-07-26T07:46:03.576Z,32.375
2018-07-26T07:47:04.301Z,32.5
2018-07-26T07:48:04.046Z,32.375
2018-07-26T07:49:03.997Z,32.375
2018-07-26T07:50:03.952Z,32.375
2018-07-26T07:51:03.690Z,32.187
2018-07-26T07:52:03.804Z,32.125
2018-07-26T07:53:03.750Z,32
2018-07-26T07:54:04.203Z,32.062
2018-07-26T07:55:03.647Z,31.937
2018-07-26T07:56:04.271Z,32.187
2018-07-26T07:57:03.952Z,32.25
2018-07-26T07:58:04.129Z,32.062
2018-07-26T07:59:03.691Z,31.812
2018-07-26T08:00:04.131Z,31.375
2018-07-26T08:01:03.685Z,31.125
2018-07-26T08:02:03.436Z,31.062
2018-07-26T08:03:04.090Z,31
2018-07-26T08:04:03.785Z,31.312
2018-07-26T08:05:03.355Z,31.375
2018-07-26T08:06:03.548Z,31.625
2018-07-26T08:07:04.136Z,31.937
2018-07-26T08:08:04.015Z,32.062
2018-07-26T08:09:03.624Z,32.187
2018-07-26T08:10:04.376Z,32.187
2018-07-26T08:11:03.665Z,32.187
2018-07-26T08:12:04.327Z,32.187
2018-07-26T08:13:03.843Z,32.062
2018-07-26T08:14:04.153Z,32.25
2018-07-26T08:15:03.393Z,32.312
2018-07-26T08:16:03.906Z,32.312
2018-07-26T08:17:03.867Z,32.437
2018-07-26T08:18:03.527Z,32.437
2018-07-26T08:19:04.253Z,32.562
2018-07-26T08:20:03.590Z,32.5
2018-07-26T08:21:04.295Z,32.687
2018-07-26T08:22:03.918Z,32.625
2018-07-26T08:23:03.685Z,32.562
2018-07-26T08:24:04.184Z,32.5
2018-07-26T08:25:03.941Z,32.562
2018-07-26T08:26:03.496Z,32.687
2018-07-26T08:27:04.159Z,32.187
2018-07-26T08:28:03.812Z,32.187
2018-07-26T08:29:08.446Z,32.125
2018-07-26T08:30:04.600Z,32.187
2018-07-26T08:31:04.032Z,32.25
2018-07-26T08:32:03.795Z,32.5
2018-07-26T08:33:03.472Z,32.375
2018-07-26T08:34:04.036Z,32.25
2018-07-26T08:35:04.322Z,32.25
2018-07-26T08:36:03.500Z,31.937
2018-07-26T08:37:04.002Z,32.062
2018-07-26T08:38:03.707Z,32
2018-07-26T08:39:05.242Z,32.062
2018-07-26T08:40:03.989Z,31.75
2018-07-26T08:41:03.826Z,31.5
2018-07-26T08:42:03.875Z,31.375
2018-07-26T08:43:03.358Z,31.625
2018-07-26T08:44:03.983Z,32
2018-07-26T08:45:03.593Z,32.437
2018-07-26T08:46:04.182Z,32.562
2018-07-26T08:47:03.951Z,32.562
2018-07-26T08:48:04.395Z,32.25
2018-07-26T08:49:04.639Z,32.375
2018-07-26T08:50:04.019Z,32.437
2018-07-26T08:51:03.348Z,32.312
2018-07-26T08:52:04.758Z,32.5
2018-07-26T08:53:04.005Z,32.687
2018-07-26T08:54:03.624Z,32.937
2018-07-26T08:55:03.652Z,33.312
2018-07-26T08:56:04.032Z,33.437
2018-07-26T08:57:03.743Z,33.125
2018-07-26T08:58:03.355Z,33.25
2018-07-26T08:59:03.925Z,33
2018-07-26T09:00:03.743Z,33
2018-07-26T09:01:04.280Z,33.187
2018-07-26T09:02:03.841Z,33.312
2018-07-26T09:03:05.363Z,33.187
2018-07-26T09:04:03.757Z,33.062
2018-07-26T09:05:03.394Z,33.062
2018-07-26T09:06:03.694Z,32.812
2018-07-26T09:07:04.246Z,32.687
2018-07-26T09:08:04.007Z,32.812
2018-07-26T09:09:05.117Z,32.812
2018-07-26T09:10:03.691Z,32.75
2018-07-26T09:11:03.498Z,32.687
2018-07-26T09:12:04.044Z,32.437
2018-07-26T09:13:04.268Z,32.562
2018-07-26T09:14:03.651Z,32.687
2018-07-26T09:15:04.189Z,32.562
2018-07-26T09:16:04.086Z,32.5
2018-07-26T09:17:03.940Z,32.187
2018-07-26T09:18:03.610Z,32.25
2018-07-26T09:19:04.475Z,32.437
2018-07-26T09:20:03.705Z,32.5
2018-07-26T09:21:04.466Z,32.5
2018-07-26T09:22:03.587Z,32.562
2018-07-26T09:23:04.237Z,32.812
2018-07-26T09:24:03.878Z,33.062
2018-07-26T09:25:03.578Z,33.312
2018-07-26T09:26:03.609Z,33.125
2018-07-26T09:27:04.211Z,32.687
2018-07-26T09:28:03.823Z,32.625
2018-07-26T09:29:03.809Z,32.625
2018-07-26T09:30:04.130Z,32.5
2018-07-26T09:31:03.732Z,32.75
2018-07-26T09:32:03.369Z,33
2018-07-26T09:33:03.773Z,33.25
2018-07-26T09:34:04.372Z,33.25
2018-07-26T09:35:03.903Z,33.25
2018-07-26T09:36:03.357Z,33.125
2018-07-26T09:37:03.993Z,33.125
2018-07-26T09:38:03.646Z,33.187
2018-07-26T09:39:05.723Z,32.937
2018-07-26T09:40:04.053Z,33.062
2018-07-26T09:41:03.714Z,33.25
2018-07-26T09:42:03.351Z,33.25
2018-07-26T09:43:04.994Z,32.625
2018-07-26T09:44:04.288Z,32.562
2018-07-26T09:45:03.576Z,32.312
2018-07-26T09:46:04.161Z,32.125
2018-07-26T09:47:03.706Z,32.125
2018-07-26T09:48:03.844Z,32.375
2018-07-26T09:49:03.472Z,32.625
2018-07-26T09:50:04.140Z,32.812
2018-07-26T09:51:03.822Z,32.687
2018-07-26T09:52:03.315Z,32.625
2018-07-26T09:53:03.910Z,32.437
2018-07-26T09:54:04.268Z,32.562
2018-07-26T09:55:03.836Z,32.75
2018-07-26T09:56:03.827Z,32.625
2018-07-26T09:57:03.619Z,32.625
2018-07-26T09:58:04.216Z,32.187
2018-07-26T09:59:04.353Z,32.062
2018-07-26T10:00:04.096Z,32.062
2018-07-26T10:01:03.887Z,31.937
2018-07-26T10:02:04.421Z,31.812
2018-07-26T10:03:04.449Z,31.812
2018-07-26T10:04:04.093Z,31.812
2018-07-26T10:05:03.768Z,31.75
2018-07-26T10:06:03.285Z,31.75
2018-07-26T10:07:03.878Z,31.75
2018-07-26T10:08:03.350Z,31.75
2018-07-26T10:09:04.400Z,32
2018-07-26T10:10:03.754Z,32.062
2018-07-26T10:11:04.306Z,32.062
2018-07-26T10:12:03.704Z,31.937
2018-07-26T10:13:03.432Z,31.937
2018-07-26T10:14:03.849Z,32.062
2018-07-26T10:15:03.582Z,32.062
2018-07-26T10:16:04.305Z,32.062
2018-07-26T10:17:03.707Z,32.125
2018-07-26T10:18:03.453Z,32.312
2018-07-26T10:19:03.617Z,32.25
2018-07-26T10:20:04.328Z,32.187
2018-07-26T10:21:03.973Z,32.25
2018-07-26T10:22:03.583Z,32.312
2018-07-26T10:23:04.232Z,32.25
2018-07-26T10:24:04.770Z,32.25
2018-07-26T10:25:03.994Z,31.937
2018-07-26T10:26:03.523Z,32.125
2018-07-26T10:27:04.083Z,32.312
2018-07-26T10:28:03.650Z,32.187
2018-07-26T10:29:04.160Z,32.125
2018-07-26T10:30:03.807Z,32
2018-07-26T10:31:03.719Z,31.875
2018-07-26T10:32:04.040Z,31.875
2018-07-26T10:33:03.670Z,31.812
2018-07-26T10:34:04.903Z,31.812
2018-07-26T10:35:03.441Z,31.937
2018-07-26T10:36:03.953Z,31.937
2018-07-26T10:37:03.480Z,31.875
2018-07-26T10:38:03.770Z,31.875
2018-07-26T10:39:03.567Z,31.937
2018-07-26T10:40:03.932Z,32
2018-07-26T10:41:03.350Z,32
2018-07-26T10:42:03.356Z,31.937
2018-07-26T10:43:03.881Z,31.937
2018-07-26T10:44:04.702Z,31.687
2018-07-26T10:45:04.107Z,31.562
2018-07-26T10:46:03.543Z,31.562
2018-07-26T10:47:04.064Z,31.5
2018-07-26T10:48:03.839Z,31.562
2018-07-26T10:49:03.486Z,31.625
2018-07-26T10:50:04.089Z,31.687
2018-07-26T10:51:04.160Z,31.75
2018-07-26T10:52:03.704Z,32
2018-07-26T10:53:03.381Z,32
2018-07-26T10:54:04.349Z,32.125
2018-07-26T10:55:03.629Z,32.187
2018-07-26T10:56:04.405Z,32.25
2018-07-26T10:57:03.743Z,32.437
2018-07-26T10:58:04.279Z,32.375
2018-07-26T10:59:03.716Z,32.5
2018-07-26T11:00:03.853Z,32.5
2018-07-26T11:01:03.727Z,32.625
2018-07-26T11:02:03.840Z,32.687
2018-07-26T11:03:04.084Z,32.75
2018-07-26T11:04:03.483Z,32.75
2018-07-26T11:05:04.027Z,32.75
2018-07-26T11:06:03.673Z,32.625
2018-07-26T11:07:04.141Z,32.437
2018-07-26T11:08:03.631Z,32.312
2018-07-26T11:09:03.728Z,32.312
2018-07-26T11:10:04.068Z,32.375
2018-07-26T11:11:04.613Z,32.437
2018-07-26T11:12:03.924Z,32.5
2018-07-26T11:13:03.553Z,32.562
2018-07-26T11:14:03.998Z,32.437
2018-07-26T11:15:03.804Z,32.312
2018-07-26T11:16:03.378Z,32.312
2018-07-26T11:17:04.296Z,32.375
2018-07-26T11:18:03.562Z,32.25
2018-07-26T11:19:05.055Z,32.125
2018-07-26T11:20:04.065Z,32.187
2018-07-26T11:21:03.829Z,32.312
2018-07-26T11:22:03.441Z,32.312
2018-07-26T11:23:03.878Z,32.312
2018-07-26T11:24:03.621Z,32.312
2018-07-26T11:25:03.690Z,32.312
2018-07-26T11:26:03.541Z,32.375
2018-07-26T11:27:04.169Z,32.437
2018-07-26T11:28:03.561Z,32.437
2018-07-26T11:29:04.720Z,32.375
2018-07-26T11:30:03.538Z,32.125
2018-07-26T11:31:04.232Z,31.75
2018-07-26T11:32:03.754Z,31.625
2018-07-26T11:33:03.409Z,31.5
2018-07-26T11:34:04.126Z,31.375
2018-07-26T11:35:03.776Z,31.312
2018-07-26T11:36:03.375Z,31.375
2018-07-26T11:37:04.069Z,31.375
2018-07-26T11:38:03.754Z,31.437
2018-07-26T11:39:04.567Z,31.625
2018-07-26T11:40:04.004Z,31.687
2018-07-26T11:41:03.689Z,31.875
2018-07-26T11:42:04.376Z,31.812
2018-07-26T11:43:03.947Z,31.812
2018-07-26T11:44:03.651Z,31.875
2018-07-26T11:45:03.446Z,31.875
2018-07-26T11:46:04.222Z,31.812
2018-07-26T11:47:03.341Z,31.75
2018-07-26T11:48:04.085Z,31.687
2018-07-26T11:49:03.640Z,31.812
2018-07-26T11:50:04.231Z,31.75
2018-07-26T11:51:03.729Z,31.75
2018-07-26T11:52:04.141Z,31.75
2018-07-26T11:53:03.836Z,31.875
2018-07-26T11:54:03.581Z,31.812
2018-07-26T11:55:04.165Z,31.812
2018-07-26T11:56:03.700Z,31.875
2018-07-26T11:57:05.439Z,31.75
2018-07-26T11:58:03.875Z,31.75
2018-07-26T11:59:03.556Z,31.75
2018-07-26T12:00:04.366Z,31.625
2018-07-26T12:01:03.684Z,31.562
2018-07-26T12:02:04.245Z,31.562
2018-07-26T12:03:03.688Z,31.625
2018-07-26T12:04:04.687Z,31.75
2018-07-26T12:05:03.607Z,31.812
2018-07-26T12:06:03.851Z,31.875
2018-07-26T12:07:03.420Z,31.875
2018-07-26T12:08:03.919Z,32
2018-07-26T12:09:03.709Z,32.062
2018-07-26T12:10:03.907Z,32.125
2018-07-26T12:11:03.425Z,32.062
2018-07-26T12:12:04.030Z,31.875
2018-07-26T12:13:03.613Z,31.937
2018-07-26T12:14:05.462Z,32
2018-07-26T12:15:03.863Z,32.125
2018-07-26T12:16:04.242Z,32.125
2018-07-26T12:17:03.832Z,32.125
2018-07-26T12:18:03.532Z,32.187
2018-07-26T12:19:04.231Z,32.187
2018-07-26T12:20:04.019Z,32.312
2018-07-26T12:21:03.680Z,32.5
2018-07-26T12:22:03.975Z,32.687
2018-07-26T12:23:03.693Z,32.812
2018-07-26T12:24:04.193Z,32.937
2018-07-26T12:25:03.786Z,32.875
2018-07-26T12:26:04.239Z,32.75
2018-07-26T12:27:03.962Z,32.812
2018-07-26T12:28:03.673Z,32.875
2018-07-26T12:29:04.178Z,33
2018-07-26T12:30:03.818Z,33
2018-07-26T12:31:03.472Z,33.062
2018-07-26T12:32:04.256Z,33.062
2018-07-26T12:33:03.454Z,33.125
2018-07-26T12:34:03.978Z,33.187
2018-07-26T12:35:03.356Z,33.312
2018-07-26T12:36:03.962Z,33.25
2018-07-26T12:37:03.500Z,33.25
2018-07-26T12:38:04.165Z,33.312
2018-07-26T12:39:04.954Z,33.312
2018-07-26T12:40:03.813Z,33.375
2018-07-26T12:41:03.469Z,33.437